sensor_id;sensor_type;location;lat;lon;timestamp;temperature;humidity
18823;DHT22;9540;51.550;7.980;2022-08-19T00:01:26;15.60;99.90
18823;DHT22;9540;51.550;7.980;2022-08-19T00:03:55;15.60;99.90
18823;DHT22;9540;51.550;7.980;2022-08-19T00:06:22;15.50;99.90
18823;DHT22;9540;51.550;7.980;2022-08-19T00:08:51;15.50;99.90
18823;DHT22;9540;51.550;7.980;2022-08-19T00:11:18;15.50;99.90
18823;DHT22;9540;51.550;7.980;2022-08-19T00:13:46;15.50;99.90
18823;DHT22;9540;51.550;7.980;2022-08-19T00:16:14;15.50;99.90
18823;DHT22;9540;51.550;7.980;2022-08-19T00:18:41;15.50;99.90
18823;DHT22;9540;51.550;7.980;2022-08-19T00:21:08;15.50;99.90
18823;DHT22;9540;51.550;7.980;2022-08-19T00:23:35;15.60;99.90
18823;DHT22;9540;51.550;7.980;2022-08-19T00:26:05;15.50;99.90
18823;DHT22;9540;51.550;7.980;2022-08-19T00:28:33;15.50;99.90
18823;DHT22;9540;51.550;7.980;2022-08-19T00:31:02;15.50;99.90
18823;DHT22;9540;51.550;7.980;2022-08-19T00:33:30;15.50;99.90
18823;DHT22;9540;51.550;7.980;2022-08-19T00:35:58;15.40;99.90
18823;DHT22;9540;51.550;7.980;2022-08-19T00:38:26;15.40;99.90
18823;DHT22;9540;51.550;7.980;2022-08-19T00:40:53;15.40;99.90
18823;DHT22;9540;51.550;7.980;2022-08-19T00:43:24;15.40;99.90
18823;DHT22;9540;51.550;7.980;2022-08-19T00:45:52;15.40;99.90
18823;DHT22;9540;51.550;7.980;2022-08-19T00:48:20;15.40;99.90
18823;DHT22;9540;51.550;7.980;2022-08-19T00:50:49;15.40;99.90
18823;DHT22;9540;51.550;7.980;2022-08-19T00:53:22;15.40;99.90
18823;DHT22;9540;51.550;7.980;2022-08-19T00:55:51;15.40;99.90
18823;DHT22;9540;51.550;7.980;2022-08-19T00:58:33;15.40;99.90
18823;DHT22;9540;51.550;7.980;2022-08-19T01:01:00;15.40;99.90
18823;DHT22;9540;51.550;7.980;2022-08-19T01:03:28;15.30;99.90
18823;DHT22;9540;51.550;7.980;2022-08-19T01:05:55;15.30;99.90
18823;DHT22;9540;51.550;7.980;2022-08-19T01:08:23;15.40;99.90
18823;DHT22;9540;51.550;7.980;2022-08-19T01:10:54;15.30;99.90
18823;DHT22;9540;51.550;7.980;2022-08-19T01:13:25;15.40;99.90
18823;DHT22;9540;51.550;7.980;2022-08-19T01:15:56;15.30;99.90
18823;DHT22;9540;51.550;7.980;2022-08-19T01:18:25;15.30;99.90
18823;DHT22;9540;51.550;7.980;2022-08-19T01:20:55;15.30;99.90
18823;DHT22;9540;51.550;7.980;2022-08-19T01:23:24;15.30;99.90
18823;DHT22;9540;51.550;7.980;2022-08-19T01:26:10;15.20;99.90
18823;DHT22;9540;51.550;7.980;2022-08-19T01:28:38;15.20;99.90
18823;DHT22;9540;51.550;7.980;2022-08-19T01:31:09;15.20;99.90
18823;DHT22;9540;51.550;7.980;2022-08-19T01:33:37;15.20;99.90
18823;DHT22;9540;51.550;7.980;2022-08-19T01:36:07;15.20;99.90
18823;DHT22;9540;51.550;7.980;2022-08-19T01:38:39;15.20;99.90
18823;DHT22;9540;51.550;7.980;2022-08-19T01:41:07;15.20;99.90
18823;DHT22;9540;51.550;7.980;2022-08-19T01:43:34;15.20;99.90
18823;DHT22;9540;51.550;7.980;2022-08-19T01:46:02;15.20;99.90
18823;DHT22;9540;51.550;7.980;2022-08-19T01:48:33;15.30;99.90
18823;DHT22;9540;51.550;7.980;2022-08-19T01:51:01;15.30;99.90
18823;DHT22;9540;51.550;7.980;2022-08-19T01:53:29;15.30;99.90
18823;DHT22;9540;51.550;7.980;2022-08-19T01:55:58;15.20;99.90
18823;DHT22;9540;51.550;7.980;2022-08-19T01:58:30;15.20;99.90
18823;DHT22;9540;51.550;7.980;2022-08-19T02:00:58;15.20;99.90
18823;DHT22;9540;51.550;7.980;2022-08-19T02:03:26;15.10;99.90
18823;DHT22;9540;51.550;7.980;2022-08-19T02:05:57;15.10;99.90
18823;DHT22;9540;51.550;7.980;2022-08-19T02:08:25;15.10;99.90
18823;DHT22;9540;51.550;7.980;2022-08-19T02:10:52;15.10;99.90
18823;DHT22;9540;51.550;7.980;2022-08-19T02:13:21;15.10;99.90
18823;DHT22;9540;51.550;7.980;2022-08-19T02:15:49;15.10;99.90
18823;DHT22;9540;51.550;7.980;2022-08-19T02:18:16;15.10;99.90
18823;DHT22;9540;51.550;7.980;2022-08-19T02:20:44;15.20;99.90
18823;DHT22;9540;51.550;7.980;2022-08-19T02:23:13;15.20;99.90
18823;DHT22;9540;51.550;7.980;2022-08-19T02:25:41;15.20;99.90
18823;DHT22;9540;51.550;7.980;2022-08-19T02:28:10;15.30;99.90
18823;DHT22;9540;51.550;7.980;2022-08-19T02:30:41;15.30;99.90
18823;DHT22;9540;51.550;7.980;2022-08-19T02:33:08;15.30;99.90
18823;DHT22;9540;51.550;7.980;2022-08-19T02:35:35;15.30;99.90
18823;DHT22;9540;51.550;7.980;2022-08-19T02:38:03;15.20;99.90
18823;DHT22;9540;51.550;7.980;2022-08-19T02:40:52;15.20;99.90
18823;DHT22;9540;51.550;7.980;2022-08-19T02:43:19;15.20;99.90
18823;DHT22;9540;51.550;7.980;2022-08-19T02:45:52;15.20;99.90
18823;DHT22;9540;51.550;7.980;2022-08-19T02:48:21;15.20;99.90
18823;DHT22;9540;51.550;7.980;2022-08-19T02:50:50;15.20;99.90
18823;DHT22;9540;51.550;7.980;2022-08-19T02:53:21;15.20;99.90
18823;DHT22;9540;51.550;7.980;2022-08-19T02:55:49;15.20;99.90
18823;DHT22;9540;51.550;7.980;2022-08-19T02:58:17;15.20;99.90
18823;DHT22;9540;51.550;7.980;2022-08-19T03:00:45;15.10;99.90
18823;DHT22;9540;51.550;7.980;2022-08-19T03:03:15;15.10;99.90
18823;DHT22;9540;51.550;7.980;2022-08-19T03:05:43;15.00;99.90
18823;DHT22;9540;51.550;7.980;2022-08-19T03:08:11;15.00;99.90
18823;DHT22;9540;51.550;7.980;2022-08-19T03:10:43;15.00;99.90
18823;DHT22;9540;51.550;7.980;2022-08-19T03:13:13;15.10;99.90
18823;DHT22;9540;51.550;7.980;2022-08-19T03:15:41;15.10;99.90
18823;DHT22;9540;51.550;7.980;2022-08-19T03:18:09;15.20;99.90
18823;DHT22;9540;51.550;7.980;2022-08-19T03:20:42;15.20;99.90
18823;DHT22;9540;51.550;7.980;2022-08-19T03:23:10;15.20;99.90
18823;DHT22;9540;51.550;7.980;2022-08-19T03:25:39;15.10;99.90
18823;DHT22;9540;51.550;7.980;2022-08-19T03:28:09;15.10;99.90
18823;DHT22;9540;51.550;7.980;2022-08-19T03:30:36;15.00;99.90
18823;DHT22;9540;51.550;7.980;2022-08-19T03:33:03;15.00;99.90
18823;DHT22;9540;51.550;7.980;2022-08-19T03:35:30;14.90;99.90
18823;DHT22;9540;51.550;7.980;2022-08-19T03:37:59;14.90;99.90
18823;DHT22;9540;51.550;7.980;2022-08-19T03:40:26;14.90;99.90
18823;DHT22;9540;51.550;7.980;2022-08-19T03:42:55;14.90;99.90
18823;DHT22;9540;51.550;7.980;2022-08-19T03:45:22;14.90;99.90
18823;DHT22;9540;51.550;7.980;2022-08-19T03:47:50;15.00;99.90
18823;DHT22;9540;51.550;7.980;2022-08-19T03:50:17;15.00;99.90
18823;DHT22;9540;51.550;7.980;2022-08-19T03:52:48;14.90;99.90
18823;DHT22;9540;51.550;7.980;2022-08-19T03:55:17;14.90;99.90
18823;DHT22;9540;51.550;7.980;2022-08-19T03:57:45;14.90;99.90
18823;DHT22;9540;51.550;7.980;2022-08-19T04:00:15;14.90;99.90
18823;DHT22;9540;51.550;7.980;2022-08-19T04:02:42;14.90;99.90
18823;DHT22;9540;51.550;7.980;2022-08-19T04:05:09;14.90;99.90
18823;DHT22;9540;51.550;7.980;2022-08-19T04:07:37;14.90;99.90
18823;DHT22;9540;51.550;7.980;2022-08-19T04:10:05;14.90;99.90
18823;DHT22;9540;51.550;7.980;2022-08-19T04:12:33;14.90;99.90
18823;DHT22;9540;51.550;7.980;2022-08-19T04:15:00;14.90;99.90
18823;DHT22;9540;51.550;7.980;2022-08-19T04:17:27;14.90;99.90
18823;DHT22;9540;51.550;7.980;2022-08-19T04:19:55;14.90;99.90
18823;DHT22;9540;51.550;7.980;2022-08-19T04:22:22;14.90;99.90
18823;DHT22;9540;51.550;7.980;2022-08-19T04:24:49;14.80;99.90
18823;DHT22;9540;51.550;7.980;2022-08-19T04:27:16;14.70;99.90
18823;DHT22;9540;51.550;7.980;2022-08-19T04:29:44;14.70;99.90
18823;DHT22;9540;51.550;7.980;2022-08-19T04:32:13;14.60;99.90
18823;DHT22;9540;51.550;7.980;2022-08-19T04:34:41;14.60;99.90
18823;DHT22;9540;51.550;7.980;2022-08-19T04:37:09;14.60;99.90
18823;DHT22;9540;51.550;7.980;2022-08-19T04:39:38;14.60;99.90
18823;DHT22;9540;51.550;7.980;2022-08-19T04:42:23;14.60;99.90
18823;DHT22;9540;51.550;7.980;2022-08-19T04:45:10;14.70;99.90
18823;DHT22;9540;51.550;7.980;2022-08-19T04:47:38;14.80;99.90
18823;DHT22;9540;51.550;7.980;2022-08-19T04:50:07;14.90;99.90
18823;DHT22;9540;51.550;7.980;2022-08-19T04:52:37;14.90;99.90
18823;DHT22;9540;51.550;7.980;2022-08-19T04:55:08;15.00;99.90
18823;DHT22;9540;51.550;7.980;2022-08-19T04:57:36;15.00;99.90
18823;DHT22;9540;51.550;7.980;2022-08-19T05:00:08;15.00;99.90
18823;DHT22;9540;51.550;7.980;2022-08-19T05:02:36;15.00;99.90
18823;DHT22;9540;51.550;7.980;2022-08-19T05:05:03;15.00;99.90
18823;DHT22;9540;51.550;7.980;2022-08-19T05:07:32;15.00;99.90
18823;DHT22;9540;51.550;7.980;2022-08-19T05:09:59;14.90;99.90
18823;DHT22;9540;51.550;7.980;2022-08-19T05:12:27;14.90;99.90
18823;DHT22;9540;51.550;7.980;2022-08-19T05:14:55;15.00;99.90
18823;DHT22;9540;51.550;7.980;2022-08-19T05:17:24;15.00;99.90
18823;DHT22;9540;51.550;7.980;2022-08-19T05:19:51;15.10;99.90
18823;DHT22;9540;51.550;7.980;2022-08-19T05:22:36;15.10;99.90
18823;DHT22;9540;51.550;7.980;2022-08-19T05:25:06;15.20;99.90
18823;DHT22;9540;51.550;7.980;2022-08-19T05:27:33;15.20;99.90
18823;DHT22;9540;51.550;7.980;2022-08-19T05:30:01;15.20;99.90
18823;DHT22;9540;51.550;7.980;2022-08-19T05:32:30;15.20;99.90
18823;DHT22;9540;51.550;7.980;2022-08-19T05:34:57;15.30;99.90
18823;DHT22;9540;51.550;7.980;2022-08-19T05:37:24;15.40;99.90
18823;DHT22;9540;51.550;7.980;2022-08-19T05:39:53;15.50;99.90
18823;DHT22;9540;51.550;7.980;2022-08-19T05:42:21;15.60;99.90
18823;DHT22;9540;51.550;7.980;2022-08-19T05:44:50;15.70;99.90
18823;DHT22;9540;51.550;7.980;2022-08-19T05:47:18;15.80;99.90
18823;DHT22;9540;51.550;7.980;2022-08-19T05:49:48;15.90;99.90
18823;DHT22;9540;51.550;7.980;2022-08-19T05:52:16;16.00;99.90
18823;DHT22;9540;51.550;7.980;2022-08-19T05:54:43;16.10;99.90
18823;DHT22;9540;51.550;7.980;2022-08-19T05:57:15;16.20;99.90
18823;DHT22;9540;51.550;7.980;2022-08-19T05:59:42;16.30;99.90
18823;DHT22;9540;51.550;7.980;2022-08-19T06:02:17;16.50;99.90
18823;DHT22;9540;51.550;7.980;2022-08-19T06:04:44;16.60;99.90
18823;DHT22;9540;51.550;7.980;2022-08-19T06:07:13;16.70;99.90
18823;DHT22;9540;51.550;7.980;2022-08-19T06:09:41;16.80;99.90
18823;DHT22;9540;51.550;7.980;2022-08-19T06:12:08;16.90;99.90
18823;DHT22;9540;51.550;7.980;2022-08-19T06:14:36;16.90;99.90
18823;DHT22;9540;51.550;7.980;2022-08-19T06:17:03;17.00;99.90
18823;DHT22;9540;51.550;7.980;2022-08-19T06:19:31;17.10;99.90
18823;DHT22;9540;51.550;7.980;2022-08-19T06:21:59;17.30;99.90
18823;DHT22;9540;51.550;7.980;2022-08-19T06:24:29;17.40;99.90
18823;DHT22;9540;51.550;7.980;2022-08-19T06:26:58;17.50;99.90
18823;DHT22;9540;51.550;7.980;2022-08-19T06:29:27;17.70;99.90
18823;DHT22;9540;51.550;7.980;2022-08-19T06:31:57;17.80;99.90
18823;DHT22;9540;51.550;7.980;2022-08-19T06:34:27;18.00;99.90
18823;DHT22;9540;51.550;7.980;2022-08-19T06:36:57;18.10;99.90
18823;DHT22;9540;51.550;7.980;2022-08-19T06:39:32;18.30;99.90
18823;DHT22;9540;51.550;7.980;2022-08-19T06:42:01;18.40;99.90
18823;DHT22;9540;51.550;7.980;2022-08-19T06:44:31;18.50;99.90
18823;DHT22;9540;51.550;7.980;2022-08-19T06:47:01;18.60;99.90
18823;DHT22;9540;51.550;7.980;2022-08-19T06:49:29;18.70;99.90
18823;DHT22;9540;51.550;7.980;2022-08-19T06:51:57;18.90;99.90
18823;DHT22;9540;51.550;7.980;2022-08-19T06:54:24;19.00;99.90
18823;DHT22;9540;51.550;7.980;2022-08-19T06:56:53;19.10;99.90
18823;DHT22;9540;51.550;7.980;2022-08-19T06:59:22;19.20;99.90
18823;DHT22;9540;51.550;7.980;2022-08-19T07:01:54;19.20;99.90
18823;DHT22;9540;51.550;7.980;2022-08-19T07:04:25;19.30;99.90
18823;DHT22;9540;51.550;7.980;2022-08-19T07:06:58;19.50;99.90
18823;DHT22;9540;51.550;7.980;2022-08-19T07:09:26;19.60;99.90
18823;DHT22;9540;51.550;7.980;2022-08-19T07:11:55;19.70;99.90
18823;DHT22;9540;51.550;7.980;2022-08-19T07:14:26;19.70;99.90
18823;DHT22;9540;51.550;7.980;2022-08-19T07:16:55;19.90;99.90
18823;DHT22;9540;51.550;7.980;2022-08-19T07:19:24;20.00;99.90
18823;DHT22;9540;51.550;7.980;2022-08-19T07:21:52;20.30;99.90
18823;DHT22;9540;51.550;7.980;2022-08-19T07:24:20;20.60;99.90
18823;DHT22;9540;51.550;7.980;2022-08-19T07:26:51;20.90;99.90
18823;DHT22;9540;51.550;7.980;2022-08-19T07:29:21;21.20;99.90
18823;DHT22;9540;51.550;7.980;2022-08-19T07:31:49;21.40;99.90
18823;DHT22;9540;51.550;7.980;2022-08-19T07:34:16;21.50;99.90
18823;DHT22;9540;51.550;7.980;2022-08-19T07:36:44;21.60;99.90
18823;DHT22;9540;51.550;7.980;2022-08-19T07:39:15;21.60;99.90
18823;DHT22;9540;51.550;7.980;2022-08-19T07:41:42;21.60;99.90
18823;DHT22;9540;51.550;7.980;2022-08-19T07:44:10;21.50;99.90
18823;DHT22;9540;51.550;7.980;2022-08-19T07:46:42;21.60;99.90
18823;DHT22;9540;51.550;7.980;2022-08-19T07:49:10;21.60;99.90
18823;DHT22;9540;51.550;7.980;2022-08-19T07:51:46;21.70;99.90
18823;DHT22;9540;51.550;7.980;2022-08-19T07:54:14;22.00;99.90
18823;DHT22;9540;51.550;7.980;2022-08-19T07:56:41;22.10;99.90
18823;DHT22;9540;51.550;7.980;2022-08-19T07:59:08;22.20;99.90
18823;DHT22;9540;51.550;7.980;2022-08-19T08:01:36;22.10;99.90
18823;DHT22;9540;51.550;7.980;2022-08-19T08:04:07;22.10;99.90
18823;DHT22;9540;51.550;7.980;2022-08-19T08:06:51;22.40;99.90
18823;DHT22;9540;51.550;7.980;2022-08-19T08:09:38;22.50;99.90
18823;DHT22;9540;51.550;7.980;2022-08-19T08:12:08;22.40;99.90
18823;DHT22;9540;51.550;7.980;2022-08-19T08:14:39;22.40;99.90
18823;DHT22;9540;51.550;7.980;2022-08-19T08:17:08;22.40;99.90
18823;DHT22;9540;51.550;7.980;2022-08-19T08:19:37;22.50;99.90
18823;DHT22;9540;51.550;7.980;2022-08-19T08:22:04;22.50;99.90
18823;DHT22;9540;51.550;7.980;2022-08-19T08:24:33;22.40;99.90
18823;DHT22;9540;51.550;7.980;2022-08-19T08:27:01;22.40;99.90
18823;DHT22;9540;51.550;7.980;2022-08-19T08:29:30;22.40;99.90
18823;DHT22;9540;51.550;7.980;2022-08-19T08:31:58;22.40;99.90
18823;DHT22;9540;51.550;7.980;2022-08-19T08:34:25;22.40;99.90
18823;DHT22;9540;51.550;7.980;2022-08-19T08:36:54;22.40;99.90
18823;DHT22;9540;51.550;7.980;2022-08-19T08:39:21;22.50;99.90
18823;DHT22;9540;51.550;7.980;2022-08-19T08:41:53;22.70;99.90
18823;DHT22;9540;51.550;7.980;2022-08-19T08:44:27;22.80;99.90
18823;DHT22;9540;51.550;7.980;2022-08-19T08:47:00;22.90;99.90
18823;DHT22;9540;51.550;7.980;2022-08-19T08:49:33;23.10;99.90
18823;DHT22;9540;51.550;7.980;2022-08-19T08:52:06;23.10;99.90
18823;DHT22;9540;51.550;7.980;2022-08-19T08:54:40;23.10;99.90
18823;DHT22;9540;51.550;7.980;2022-08-19T08:57:12;23.30;99.90
18823;DHT22;9540;51.550;7.980;2022-08-19T08:59:41;23.60;99.90
18823;DHT22;9540;51.550;7.980;2022-08-19T09:02:10;23.70;99.90
18823;DHT22;9540;51.550;7.980;2022-08-19T09:04:37;23.90;99.90
18823;DHT22;9540;51.550;7.980;2022-08-19T09:07:22;24.10;99.90
18823;DHT22;9540;51.550;7.980;2022-08-19T09:09:57;24.10;99.90
18823;DHT22;9540;51.550;7.980;2022-08-19T09:12:38;24.10;99.90
18823;DHT22;9540;51.550;7.980;2022-08-19T09:15:12;24.10;99.90
18823;DHT22;9540;51.550;7.980;2022-08-19T09:17:39;24.10;99.90
18823;DHT22;9540;51.550;7.980;2022-08-19T09:20:14;24.30;99.90
18823;DHT22;9540;51.550;7.980;2022-08-19T09:22:44;24.40;99.90
18823;DHT22;9540;51.550;7.980;2022-08-19T09:25:14;24.40;99.90
18823;DHT22;9540;51.550;7.980;2022-08-19T09:27:42;24.50;99.90
18823;DHT22;9540;51.550;7.980;2022-08-19T09:30:14;24.50;99.90
18823;DHT22;9540;51.550;7.980;2022-08-19T09:32:42;24.50;99.90
18823;DHT22;9540;51.550;7.980;2022-08-19T09:35:09;24.70;99.90
18823;DHT22;9540;51.550;7.980;2022-08-19T09:37:37;24.90;99.90
18823;DHT22;9540;51.550;7.980;2022-08-19T09:40:06;24.80;99.90
18823;DHT22;9540;51.550;7.980;2022-08-19T09:42:33;24.80;99.90
18823;DHT22;9540;51.550;7.980;2022-08-19T09:45:05;24.90;99.90
18823;DHT22;9540;51.550;7.980;2022-08-19T09:47:32;24.80;99.90
18823;DHT22;9540;51.550;7.980;2022-08-19T09:50:02;24.60;99.90
18823;DHT22;9540;51.550;7.980;2022-08-19T09:52:29;24.70;99.90
18823;DHT22;9540;51.550;7.980;2022-08-19T09:54:56;24.80;99.90
18823;DHT22;9540;51.550;7.980;2022-08-19T09:57:24;24.80;99.90
18823;DHT22;9540;51.550;7.980;2022-08-19T09:59:52;24.70;99.90
18823;DHT22;9540;51.550;7.980;2022-08-19T10:02:20;24.70;99.90
18823;DHT22;9540;51.550;7.980;2022-08-19T10:04:47;24.60;99.90
18823;DHT22;9540;51.550;7.980;2022-08-19T10:07:32;24.40;99.90
18823;DHT22;9540;51.550;7.980;2022-08-19T10:10:00;24.20;99.90
18823;DHT22;9540;51.550;7.980;2022-08-19T10:12:28;24.40;99.90
18823;DHT22;9540;51.550;7.980;2022-08-19T10:14:56;24.50;99.90
18823;DHT22;9540;51.550;7.980;2022-08-19T10:17:23;25.00;99.90
18823;DHT22;9540;51.550;7.980;2022-08-19T10:19:51;25.30;99.90
18823;DHT22;9540;51.550;7.980;2022-08-19T10:22:18;25.40;99.90
18823;DHT22;9540;51.550;7.980;2022-08-19T10:24:46;25.20;99.90
18823;DHT22;9540;51.550;7.980;2022-08-19T10:27:13;25.00;99.90
18823;DHT22;9540;51.550;7.980;2022-08-19T10:29:41;24.70;99.90
18823;DHT22;9540;51.550;7.980;2022-08-19T10:32:09;24.50;99.90
18823;DHT22;9540;51.550;7.980;2022-08-19T10:34:37;24.50;99.90
18823;DHT22;9540;51.550;7.980;2022-08-19T10:37:05;24.80;99.90
18823;DHT22;9540;51.550;7.980;2022-08-19T10:39:34;24.90;99.90
18823;DHT22;9540;51.550;7.980;2022-08-19T10:42:04;25.10;99.90
18823;DHT22;9540;51.550;7.980;2022-08-19T10:44:33;25.40;99.90
18823;DHT22;9540;51.550;7.980;2022-08-19T10:47:03;25.60;99.90
18823;DHT22;9540;51.550;7.980;2022-08-19T10:49:31;25.50;99.90
18823;DHT22;9540;51.550;7.980;2022-08-19T10:52:18;25.20;99.90
18823;DHT22;9540;51.550;7.980;2022-08-19T10:54:59;25.00;99.90
18823;DHT22;9540;51.550;7.980;2022-08-19T10:57:44;25.10;99.90
18823;DHT22;9540;51.550;7.980;2022-08-19T11:00:13;25.30;99.90
18823;DHT22;9540;51.550;7.980;2022-08-19T11:02:42;25.40;99.90
18823;DHT22;9540;51.550;7.980;2022-08-19T11:05:09;25.60;99.90
18823;DHT22;9540;51.550;7.980;2022-08-19T11:07:38;25.50;99.90
18823;DHT22;9540;51.550;7.980;2022-08-19T11:10:07;25.30;99.90
18823;DHT22;9540;51.550;7.980;2022-08-19T11:12:37;24.80;99.90
18823;DHT22;9540;51.550;7.980;2022-08-19T11:15:06;24.70;99.90
18823;DHT22;9540;51.550;7.980;2022-08-19T11:17:34;24.80;99.90
18823;DHT22;9540;51.550;7.980;2022-08-19T11:20:03;25.10;99.90
18823;DHT22;9540;51.550;7.980;2022-08-19T11:22:31;25.30;99.90
18823;DHT22;9540;51.550;7.980;2022-08-19T11:24:58;25.60;99.90
18823;DHT22;9540;51.550;7.980;2022-08-19T11:27:25;25.90;99.90
18823;DHT22;9540;51.550;7.980;2022-08-19T11:29:54;26.30;99.90
18823;DHT22;9540;51.550;7.980;2022-08-19T11:32:21;26.40;99.90
18823;DHT22;9540;51.550;7.980;2022-08-19T11:34:49;26.40;99.90
18823;DHT22;9540;51.550;7.980;2022-08-19T11:37:17;26.50;99.90
18823;DHT22;9540;51.550;7.980;2022-08-19T11:39:45;26.30;99.90
18823;DHT22;9540;51.550;7.980;2022-08-19T11:42:12;26.30;99.90
18823;DHT22;9540;51.550;7.980;2022-08-19T11:45:05;26.20;99.90
18823;DHT22;9540;51.550;7.980;2022-08-19T11:47:33;26.30;99.90
18823;DHT22;9540;51.550;7.980;2022-08-19T11:50:00;26.60;99.90
18823;DHT22;9540;51.550;7.980;2022-08-19T11:52:29;26.50;99.90
18823;DHT22;9540;51.550;7.980;2022-08-19T11:54:56;26.40;99.90
18823;DHT22;9540;51.550;7.980;2022-08-19T11:57:23;26.60;99.90
18823;DHT22;9540;51.550;7.980;2022-08-19T11:59:51;26.90;99.90
18823;DHT22;9540;51.550;7.980;2022-08-19T12:02:18;27.20;99.90
18823;DHT22;9540;51.550;7.980;2022-08-19T12:04:47;27.30;99.90
18823;DHT22;9540;51.550;7.980;2022-08-19T12:07:14;27.30;99.90
18823;DHT22;9540;51.550;7.980;2022-08-19T12:09:43;27.40;99.90
18823;DHT22;9540;51.550;7.980;2022-08-19T12:12:11;27.40;99.90
18823;DHT22;9540;51.550;7.980;2022-08-19T12:14:38;27.40;99.90
18823;DHT22;9540;51.550;7.980;2022-08-19T12:17:05;27.50;99.90
18823;DHT22;9540;51.550;7.980;2022-08-19T12:19:35;27.70;99.90
18823;DHT22;9540;51.550;7.980;2022-08-19T12:22:03;27.70;99.90
18823;DHT22;9540;51.550;7.980;2022-08-19T12:24:32;27.60;99.90
18823;DHT22;9540;51.550;7.980;2022-08-19T12:27:01;27.60;99.90
18823;DHT22;9540;51.550;7.980;2022-08-19T12:29:29;27.50;99.90
18823;DHT22;9540;51.550;7.980;2022-08-19T12:31:57;27.60;99.90
18823;DHT22;9540;51.550;7.980;2022-08-19T12:34:28;27.40;99.90
18823;DHT22;9540;51.550;7.980;2022-08-19T12:36:58;27.30;99.90
18823;DHT22;9540;51.550;7.980;2022-08-19T12:39:25;27.30;99.90
18823;DHT22;9540;51.550;7.980;2022-08-19T12:41:52;27.20;99.90
18823;DHT22;9540;51.550;7.980;2022-08-19T12:44:21;27.00;99.90
18823;DHT22;9540;51.550;7.980;2022-08-19T12:46:49;26.90;99.90
18823;DHT22;9540;51.550;7.980;2022-08-19T12:49:16;27.00;99.90
18823;DHT22;9540;51.550;7.980;2022-08-19T12:51:43;27.00;99.90
18823;DHT22;9540;51.550;7.980;2022-08-19T12:54:11;26.80;99.90
18823;DHT22;9540;51.550;7.980;2022-08-19T12:56:39;26.80;99.90
18823;DHT22;9540;51.550;7.980;2022-08-19T12:59:06;26.90;99.90
18823;DHT22;9540;51.550;7.980;2022-08-19T13:01:35;26.90;99.90
18823;DHT22;9540;51.550;7.980;2022-08-19T13:04:03;27.00;99.90
18823;DHT22;9540;51.550;7.980;2022-08-19T13:06:31;27.00;99.90
18823;DHT22;9540;51.550;7.980;2022-08-19T13:08:58;27.00;99.90
18823;DHT22;9540;51.550;7.980;2022-08-19T13:11:25;27.20;99.90
18823;DHT22;9540;51.550;7.980;2022-08-19T13:13:53;27.30;99.90
18823;DHT22;9540;51.550;7.980;2022-08-19T13:16:21;27.50;99.90
18823;DHT22;9540;51.550;7.980;2022-08-19T13:18:50;27.60;99.90
18823;DHT22;9540;51.550;7.980;2022-08-19T13:21:19;27.70;99.90
18823;DHT22;9540;51.550;7.980;2022-08-19T13:23:48;27.80;99.90
18823;DHT22;9540;51.550;7.980;2022-08-19T13:26:16;27.90;98.80
18823;DHT22;9540;51.550;7.980;2022-08-19T13:28:45;27.70;99.90
18823;DHT22;9540;51.550;7.980;2022-08-19T13:31:31;27.70;99.90
18823;DHT22;9540;51.550;7.980;2022-08-19T13:34:18;27.60;99.90
18823;DHT22;9540;51.550;7.980;2022-08-19T13:36:45;27.30;99.90
18823;DHT22;9540;51.550;7.980;2022-08-19T13:39:12;27.50;99.90
18823;DHT22;9540;51.550;7.980;2022-08-19T13:41:44;27.40;99.90
18823;DHT22;9540;51.550;7.980;2022-08-19T13:44:14;27.30;99.90
18823;DHT22;9540;51.550;7.980;2022-08-19T13:46:43;27.00;99.90
18823;DHT22;9540;51.550;7.980;2022-08-19T13:49:11;26.90;99.90
18823;DHT22;9540;51.550;7.980;2022-08-19T13:51:42;26.90;99.90
18823;DHT22;9540;51.550;7.980;2022-08-19T13:54:10;27.00;99.90
18823;DHT22;9540;51.550;7.980;2022-08-19T13:56:41;27.00;99.90
18823;DHT22;9540;51.550;7.980;2022-08-19T13:59:09;26.80;99.90
18823;DHT22;9540;51.550;7.980;2022-08-19T14:01:37;26.60;99.90
18823;DHT22;9540;51.550;7.980;2022-08-19T14:04:04;26.30;99.90
18823;DHT22;9540;51.550;7.980;2022-08-19T14:06:32;26.10;99.90
18823;DHT22;9540;51.550;7.980;2022-08-19T14:09:00;26.00;99.90
18823;DHT22;9540;51.550;7.980;2022-08-19T14:11:28;26.20;99.90
18823;DHT22;9540;51.550;7.980;2022-08-19T14:13:55;26.30;99.90
18823;DHT22;9540;51.550;7.980;2022-08-19T14:16:23;26.40;99.90
18823;DHT22;9540;51.550;7.980;2022-08-19T14:18:50;26.30;99.90
18823;DHT22;9540;51.550;7.980;2022-08-19T14:21:21;26.20;99.90
18823;DHT22;9540;51.550;7.980;2022-08-19T14:23:49;26.20;99.90
18823;DHT22;9540;51.550;7.980;2022-08-19T14:26:19;26.20;99.90
18823;DHT22;9540;51.550;7.980;2022-08-19T14:28:50;26.40;99.90
18823;DHT22;9540;51.550;7.980;2022-08-19T14:31:18;26.70;99.90
18823;DHT22;9540;51.550;7.980;2022-08-19T14:33:47;26.90;99.70
18823;DHT22;9540;51.550;7.980;2022-08-19T14:36:16;26.90;99.20
18823;DHT22;9540;51.550;7.980;2022-08-19T14:38:43;26.80;99.90
18823;DHT22;9540;51.550;7.980;2022-08-19T14:41:14;26.80;99.90
18823;DHT22;9540;51.550;7.980;2022-08-19T14:43:47;26.80;99.20
18823;DHT22;9540;51.550;7.980;2022-08-19T14:46:16;27.00;99.20
18823;DHT22;9540;51.550;7.980;2022-08-19T14:48:45;27.10;97.50
18823;DHT22;9540;51.550;7.980;2022-08-19T14:51:12;27.10;96.90
18823;DHT22;9540;51.550;7.980;2022-08-19T14:53:40;27.10;96.80
18823;DHT22;9540;51.550;7.980;2022-08-19T14:56:08;27.30;96.10
18823;DHT22;9540;51.550;7.980;2022-08-19T14:58:35;27.40;95.20
18823;DHT22;9540;51.550;7.980;2022-08-19T15:01:04;27.60;96.00
18823;DHT22;9540;51.550;7.980;2022-08-19T15:03:31;27.80;95.50
18823;DHT22;9540;51.550;7.980;2022-08-19T15:05:59;28.00;94.30
18823;DHT22;9540;51.550;7.980;2022-08-19T15:08:28;28.00;93.70
18823;DHT22;9540;51.550;7.980;2022-08-19T15:10:57;28.00;92.80
18823;DHT22;9540;51.550;7.980;2022-08-19T15:13:25;27.90;93.30
18823;DHT22;9540;51.550;7.980;2022-08-19T15:15:53;27.90;93.10
18823;DHT22;9540;51.550;7.980;2022-08-19T15:18:21;28.00;92.80
18823;DHT22;9540;51.550;7.980;2022-08-19T15:20:49;28.00;92.50
18823;DHT22;9540;51.550;7.980;2022-08-19T15:23:17;28.20;91.90
18823;DHT22;9540;51.550;7.980;2022-08-19T15:25:45;28.00;92.60
18823;DHT22;9540;51.550;7.980;2022-08-19T15:28:13;28.00;91.60
18823;DHT22;9540;51.550;7.980;2022-08-19T15:30:42;27.80;91.70
18823;DHT22;9540;51.550;7.980;2022-08-19T15:33:11;27.50;92.10
18823;DHT22;9540;51.550;7.980;2022-08-19T15:35:41;27.50;92.30
18823;DHT22;9540;51.550;7.980;2022-08-19T15:38:08;27.70;92.10
18823;DHT22;9540;51.550;7.980;2022-08-19T15:40:39;27.90;92.60
18823;DHT22;9540;51.550;7.980;2022-08-19T15:43:07;28.10;91.50
18823;DHT22;9540;51.550;7.980;2022-08-19T15:45:34;28.30;91.60
18823;DHT22;9540;51.550;7.980;2022-08-19T15:48:02;28.20;91.30
18823;DHT22;9540;51.550;7.980;2022-08-19T15:50:30;27.90;91.70
18823;DHT22;9540;51.550;7.980;2022-08-19T15:53:01;27.50;92.10
18823;DHT22;9540;51.550;7.980;2022-08-19T15:55:30;27.20;92.30
18823;DHT22;9540;51.550;7.980;2022-08-19T15:57:58;27.00;93.00